Odonnell, Texas
Current Conditions -  °F | °C
As of 9:53 AM on Sunday 25 Jan 2015 (Local Time) from KLBB Reporting Station
Few Clouds Few Clouds  
Wind Chill: 43°   Ceiling: Unl
Heat Index: 46°   Visibility: 10mi
Dew Point: 29°   Wind: 6mph
Humidity: 51%   Direction: 320°NW
Pressure: 30.22"   Gusts: NA
Location:  32.98°N, 101.89°W
Report Text: KLBB 251553Z 32005KT 10SM FEW250 08/M02 A3022 RMK AO2 SLP227 T00781017
Loading
Personal Weather Stations






























Interactive Weather Map New forecast layout! Learn more

10-Day Weather Forecast

Advertisements
Track Severe Weather on mobile